Time;durP1;ratioP1;P1;durP2;ratioP2;P2;SDS_P1;SDS_P2;PMS_P1;PMS_P2;Temp;Humidity;BMP_temperature;BMP_pressure;BME280_temperature;BME280_humidity;BME280_pressure;Samples;Min_cycle;Max_cycle;Signal;HPM_P1;HPM_P2
2022/07/25 00:01:56;;;;;;;7.13;6.18;;;;;;;19.46;65.29;100373.13;4969665;28;20511;-73
2022/07/25 00:05:00;;;;;;;9.68;5.90;;;;;;;19.39;65.76;100364.03;4969027;28;20130;-73
2022/07/25 00:08:03;;;;;;;7.18;5.95;;;;;;;19.43;65.69;100360.16;4968908;28;20119;-73
2022/07/25 00:11:06;;;;;;;6.45;5.82;;;;;;;19.52;65.39;100353.97;4968397;28;20045;-73
2022/07/25 00:14:09;;;;;;;10.07;5.82;;;;;;;19.39;65.17;100353.44;4969871;28;20139;-73
2022/07/25 00:17:13;;;;;;;6.93;5.28;;;;;;;19.25;65.14;100357.34;4969484;28;20523;-73
2022/07/25 00:20:16;;;;;;;9.07;5.80;;;;;;;19.17;65.67;100343.13;4969599;28;20054;-73
2022/07/25 00:23:20;;;;;;;6.43;5.75;;;;;;;19.23;66.37;100340.75;4969448;28;20463;-73
2022/07/25 00:26:23;;;;;;;7.65;5.68;;;;;;;19.33;65.93;100343.38;4968867;28;20105;-73
2022/07/25 00:29:27;;;;;;;10.90;7.00;;;;;;;19.32;66.02;100332.94;4972398;28;20428;-73
2022/07/25 00:32:30;;;;;;;14.02;5.95;;;;;;;19.21;66.12;100337.41;4973195;28;20050;-73
2022/07/25 00:35:33;;;;;;;8.30;6.20;;;;;;;19.18;65.99;100334.22;4973501;28;20062;-74
2022/07/25 00:38:37;;;;;;;7.75;6.50;;;;;;;19.05;66.68;100321.25;4972323;28;20049;-74
2022/07/25 00:41:40;;;;;;;9.93;6.32;;;;;;;18.96;66.86;100316.78;4972643;28;20050;-74
2022/07/25 00:44:44;;;;;;;8.90;5.55;;;;;;;18.84;66.98;100324.00;4972123;28;20049;-73
2022/07/25 00:47:47;;;;;;;10.20;5.75;;;;;;;18.85;66.74;100330.97;4971192;28;20097;-72
2022/07/25 00:50:50;;;;;;;8.70;6.32;;;;;;;18.71;67.47;100329.53;4971339;28;20116;-72
2022/07/25 00:53:56;;;;;;;6.97;5.45;;;;;;;18.82;67.21;100331.25;4971009;28;20118;-72
2022/07/25 00:56:59;;;;;;;10.27;6.35;;;;;;;18.73;66.81;100319.69;4987987;28;20105;-73
2022/07/25 01:00:10;;;;;;;11.25;6.25;;;;;;;18.70;67.36;100322.59;4992167;28;20081;-72
2022/07/25 01:03:13;;;;;;;11.77;5.32;;;;;;;18.83;67.12;100317.06;4991750;28;20084;-74
2022/07/25 01:06:18;;;;;;;8.63;6.47;;;;;;;18.68;67.81;100324.53;4991557;28;20052;-72
2022/07/25 01:09:21;;;;;;;8.05;6.28;;;;;;;18.62;68.21;100329.53;4991042;28;20135;-73
2022/07/25 01:12:24;;;;;;;8.88;6.40;;;;;;;18.64;67.71;100323.13;4990766;28;20065;-72
2022/07/25 01:15:28;;;;;;;15.75;6.13;;;;;;;18.63;67.83;100316.13;4991336;28;20073;-72
2022/07/25 01:18:33;;;;;;;9.15;6.47;;;;;;;18.52;67.85;100317.09;4990968;28;20065;-72
2022/07/25 01:21:38;;;;;;;7.07;5.93;;;;;;;18.29;68.56;100313.84;4990680;28;20065;-73
2022/07/25 01:24:41;;;;;;;8.13;6.00;;;;;;;18.24;69.26;100309.94;4991314;28;20045;-73
2022/07/25 01:27:45;;;;;;;7.40;6.20;;;;;;;18.16;69.15;100313.25;4990933;28;20049;-73
2022/07/25 01:30:48;;;;;;;7.63;6.45;;;;;;;18.14;69.05;100304.59;4990931;28;20057;-73
2022/07/25 01:33:52;;;;;;;7.55;6.10;;;;;;;18.10;69.39;100319.09;4990568;28;20045;-73
2022/07/25 01:36:55;;;;;;;9.93;6.40;;;;;;;18.07;69.67;100319.34;4990367;28;20058;-73
2022/07/25 01:39:59;;;;;;;8.45;5.93;;;;;;;18.06;70.02;100317.66;4991117;28;20672;-73
2022/07/25 01:43:03;;;;;;;6.55;5.80;;;;;;;18.11;69.64;100311.00;4971297;28;20053;-73
2022/07/25 01:46:06;;;;;;;10.52;6.68;;;;;;;17.95;69.66;100312.47;4971179;28;20443;-73
2022/07/25 01:49:09;;;;;;;8.25;6.22;;;;;;;18.20;68.98;100309.38;4970980;28;20081;-74
2022/07/25 01:52:13;;;;;;;10.93;6.05;;;;;;;18.51;67.55;100291.63;4970662;28;20531;-75
2022/07/25 01:55:17;;;;;;;7.55;6.43;;;;;;;18.12;68.83;100290.66;4971130;28;20101;-73
2022/07/25 01:58:20;;;;;;;10.32;6.72;;;;;;;17.94;69.13;100292.28;4959120;28;20522;-73
2022/07/25 02:01:24;;;;;;;8.75;6.53;;;;;;;17.87;70.02;100291.97;4971774;28;20101;-73
2022/07/25 02:04:27;;;;;;;7.43;6.22;;;;;;;17.82;70.39;100295.00;4974558;28;20475;-73
2022/07/25 02:07:30;;;;;;;12.48;6.88;;;;;;;17.78;70.00;100288.31;4990048;28;20045;-73
2022/07/25 02:10:34;;;;;;;8.80;6.97;;;;;;;17.64;70.66;100285.97;4989483;28;20100;-73
2022/07/25 02:13:37;;;;;;;6.78;5.65;;;;;;;17.82;69.69;100283.59;4989412;28;20101;-73
2022/07/25 02:16:40;;;;;;;7.07;6.38;;;;;;;17.70;70.10;100284.63;4978009;28;20041;-73
2022/07/25 02:19:44;;;;;;;9.48;5.80;;;;;;;17.61;70.25;100283.59;4977612;28;20054;-73
2022/07/25 02:22:47;;;;;;;9.38;6.75;;;;;;;17.63;70.56;100281.66;4969739;28;20130;-73
2022/07/25 02:25:50;;;;;;;7.50;5.75;;;;;;;17.78;70.11;100276.91;4970163;28;20130;-73
2022/07/25 02:28:54;;;;;;;8.70;5.97;;;;;;;17.74;70.42;100286.88;4969740;28;20175;-73
2022/07/25 02:31:57;;;;;;;7.57;6.55;;;;;;;17.67;70.53;100285.72;4970802;28;20045;-73
2022/07/25 02:35:01;;;;;;;8.38;5.93;;;;;;;17.78;70.09;100282.19;4987597;28;20162;-73
2022/07/25 02:38:04;;;;;;;7.70;6.90;;;;;;;17.61;70.49;100276.53;4990224;28;20145;-73
2022/07/25 02:41:07;;;;;;;13.15;6.70;;;;;;;17.54;70.72;100278.00;4990017;28;20045;-73
2022/07/25 02:44:11;;;;;;;7.35;5.53;;;;;;;17.54;71.20;100274.53;4988844;28;20048;-72
2022/07/25 02:47:14;;;;;;;7.50;5.63;;;;;;;17.50;71.10;100273.13;4988373;28;20591;-73
2022/07/25 02:50:18;;;;;;;10.27;5.97;;;;;;;17.35;71.56;100265.50;4969213;28;20062;-72
2022/07/25 02:53:21;;;;;;;7.50;5.70;;;;;;;17.28;71.64;100267.00;4970201;28;20098;-73
2022/07/25 02:56:25;;;;;;;10.00;6.95;;;;;;;17.18;72.15;100260.81;4970525;28;20062;-73
2022/07/25 02:59:29;;;;;;;8.98;6.35;;;;;;;17.01;73.00;100256.13;4969841;28;20068;-73
2022/07/25 03:02:33;;;;;;;11.25;6.95;;;;;;;17.09;72.72;100258.94;4969876;28;20133;-73
2022/07/25 03:05:36;;;;;;;8.60;6.72;;;;;;;17.14;72.38;100254.13;4969460;28;20107;-73
2022/07/25 03:08:39;;;;;;;8.52;6.78;;;;;;;17.19;72.13;100244.00;4970143;28;20112;-73
2022/07/25 03:11:42;;;;;;;9.50;6.35;;;;;;;17.23;71.83;100253.34;4970731;28;20134;-73
2022/07/25 03:14:45;;;;;;;10.52;6.80;;;;;;;17.18;71.80;100252.91;4970079;28;20511;-73
2022/07/25 03:17:49;;;;;;;9.32;6.20;;;;;;;16.99;72.61;100252.75;4970077;28;20460;-73
2022/07/25 03:20:52;;;;;;;11.30;6.75;;;;;;;16.97;72.20;100255.50;4969322;28;20057;-73
2022/07/25 03:23:56;;;;;;;7.05;6.30;;;;;;;17.20;71.70;100251.81;4970281;28;20455;-73
2022/07/25 03:27:00;;;;;;;9.57;7.05;;;;;;;17.14;72.01;100247.03;4969809;28;20061;-73
2022/07/25 03:30:03;;;;;;;10.88;6.60;;;;;;;17.05;72.46;100241.69;4970465;28;20077;-73
2022/07/25 03:33:07;;;;;;;8.05;5.93;;;;;;;17.06;72.10;100238.06;4970905;28;20571;-73
2022/07/25 03:36:10;;;;;;;8.52;6.05;;;;;;;17.20;71.44;100240.41;4969735;28;20042;-73
2022/07/25 03:39:14;;;;;;;10.38;6.53;;;;;;;17.03;72.11;100236.53;4969665;28;20109;-72
2022/07/25 03:42:17;;;;;;;9.02;6.18;;;;;;;17.05;72.14;100237.22;4969739;28;20050;-73
2022/07/25 03:45:21;;;;;;;8.95;6.78;;;;;;;16.81;73.14;100239.28;4976657;28;20045;-73
2022/07/25 03:48:24;;;;;;;9.32;6.63;;;;;;;16.73;73.46;100226.69;4989523;28;20053;-74
2022/07/25 03:51:27;;;;;;;7.95;6.47;;;;;;;16.63;73.69;100233.69;4988861;28;20116;-74
2022/07/25 03:54:31;;;;;;;9.25;6.35;;;;;;;16.51;74.29;100233.72;4989027;28;20561;-74
2022/07/25 03:57:34;;;;;;;10.05;7.25;;;;;;;16.45;74.97;100233.38;4988814;28;20042;-73
2022/07/25 04:00:38;;;;;;;9.00;6.93;;;;;;;16.55;74.08;100229.03;4988742;28;20053;-74
2022/07/25 04:03:41;;;;;;;9.52;6.90;;;;;;;16.45;74.08;100226.31;4993321;28;20096;-72
2022/07/25 04:06:45;;;;;;;9.35;6.43;;;;;;;16.67;73.65;100228.03;4992505;28;20222;-73
2022/07/25 04:09:49;;;;;;;9.98;6.47;;;;;;;16.65;73.43;100223.81;4979985;28;20628;-73
2022/07/25 04:12:52;;;;;;;9.00;6.75;;;;;;;16.77;73.33;100214.09;4991191;28;20514;-71
2022/07/25 04:15:55;;;;;;;12.65;6.78;;;;;;;16.73;73.55;100216.13;4973220;28;20054;-73
2022/07/25 04:18:59;;;;;;;12.50;6.57;;;;;;;16.62;74.51;100216.16;4973251;28;20510;-72
2022/07/25 04:26:05;;;;;;;7.50;6.35;;;;;;;16.55;74.62;100213.19;4973382;28;20256;-71
2022/07/25 04:29:10;;;;;;;7.90;6.93;;;;;;;16.44;75.24;100211.44;4972782;28;20659;-72
2022/07/25 04:36:27;;;;;;;8.57;6.55;;;;;;;16.61;74.64;100201.28;4972106;28;20521;-73
2022/07/25 04:39:30;;;;;;;9.32;7.07;;;;;;;16.67;74.34;100192.88;4972943;28;20419;-73
2022/07/25 04:42:34;;;;;;;9.05;6.70;;;;;;;16.69;74.73;100193.59;4980126;28;20515;-73
2022/07/25 04:45:37;;;;;;;11.10;6.60;;;;;;;16.59;74.91;100193.53;4991279;28;20122;-73
2022/07/25 04:48:40;;;;;;;11.00;6.90;;;;;;;16.65;74.71;100176.31;4991446;28;20601;-72
2022/07/25 04:51:44;;;;;;;9.15;6.95;;;;;;;16.69;74.63;100175.13;4992324;28;20049;-73
2022/07/25 04:54:47;;;;;;;10.85;7.20;;;;;;;16.54;75.30;100177.22;4992117;28;20089;-74
2022/07/25 04:57:51;;;;;;;9.10;6.47;;;;;;;16.68;73.88;100173.41;4971648;28;20094;-74
2022/07/25 05:00:54;;;;;;;9.35;6.65;;;;;;;16.87;72.58;100173.59;4972660;28;20128;-75
2022/07/25 05:03:57;;;;;;;10.50;6.68;;;;;;;16.89;72.52;100168.19;4973168;28;20416;-74
2022/07/25 05:07:01;;;;;;;8.65;6.70;;;;;;;17.19;71.16;100159.44;4972903;28;20050;-74
2022/07/25 05:10:05;;;;;;;7.47;5.93;;;;;;;17.50;68.23;100156.81;4973056;28;20682;-74
2022/07/25 05:13:09;;;;;;;11.80;6.68;;;;;;;17.64;67.59;100153.78;4971813;28;20684;-73
2022/07/25 05:16:12;;;;;;;8.48;6.60;;;;;;;17.55;68.50;100154.59;4972217;28;20038;-73
2022/07/25 05:19:16;;;;;;;10.75;5.82;;;;;;;17.54;68.65;100163.50;4971949;28;20483;-74
2022/07/25 05:22:19;;;;;;;8.30;6.25;;;;;;;17.57;68.99;100157.94;4983027;28;20045;-74
2022/07/25 05:25:22;;;;;;;13.82;6.50;;;;;;;17.46;69.50;100150.13;4972694;28;20459;-74
2022/07/25 05:28:26;;;;;;;15.48;6.78;;;;;;;17.78;68.48;100145.50;4971905;28;20751;-75
2022/07/25 05:31:29;;;;;;;9.60;6.07;;;;;;;17.62;68.32;100142.53;4971900;28;20046;-74
2022/07/25 05:34:32;;;;;;;11.38;6.32;;;;;;;17.72;67.66;100146.03;4972086;28;20103;-74
2022/07/25 05:37:37;;;;;;;14.85;6.70;;;;;;;17.99;67.28;100147.22;4971811;28;20126;-75
2022/07/25 05:40:40;;;;;;;12.73;6.50;;;;;;;18.14;66.38;100143.19;4971714;28;20089;-73
2022/07/25 05:43:45;;;;;;;10.85;5.90;;;;;;;17.99;66.80;100136.63;4972260;28;20154;-73
2022/07/25 05:46:49;;;;;;;11.35;5.80;;;;;;;18.15;66.40;100131.63;4971833;28;20058;-72
2022/07/25 05:49:53;;;;;;;9.65;6.45;;;;;;;18.12;66.66;100137.19;4971379;28;20053;-72
2022/07/25 05:52:56;;;;;;;11.10;5.45;;;;;;;18.41;65.76;100131.06;4971537;28;20519;-72
2022/07/25 05:55:59;;;;;;;7.72;6.20;;;;;;;18.63;65.29;100133.41;4959040;28;20101;-72
2022/07/25 05:59:02;;;;;;;16.30;6.47;;;;;;;18.75;64.94;100131.50;4970946;28;20539;-74
2022/07/25 06:02:06;;;;;;;12.68;5.65;;;;;;;18.89;64.52;100119.59;4970673;28;20131;-71
2022/07/25 06:05:09;;;;;;;10.80;5.97;;;;;;;18.95;64.40;100129.63;4970791;28;20133;-69
2022/07/25 06:08:14;;;;;;;12.35;5.45;;;;;;;19.09;64.23;100128.34;4975622;28;20045;-73
2022/07/25 06:11:17;;;;;;;12.32;6.07;;;;;;;19.21;64.05;100119.25;4985988;28;20089;-73
2022/07/25 06:14:20;;;;;;;10.85;6.00;;;;;;;19.34;63.91;100118.91;4969532;28;20045;-71
2022/07/25 06:17:23;;;;;;;9.50;6.55;;;;;;;19.36;63.97;100111.63;4958918;28;20123;-69
2022/07/25 06:20:27;;;;;;;15.75;6.65;;;;;;;19.24;65.17;100103.88;4970381;28;20097;-69
2022/07/25 06:23:30;;;;;;;10.65;5.55;;;;;;;19.41;64.39;100109.38;4982662;28;20144;-69
2022/07/25 06:26:33;;;;;;;11.50;5.90;;;;;;;19.57;64.07;100091.00;4968388;28;20456;-70
2022/07/25 06:29:37;;;;;;;7.80;5.50;;;;;;;19.63;63.98;100097.53;4969570;28;20056;-70
2022/07/25 06:32:41;;;;;;;8.05;6.05;;;;;;;19.74;63.63;100090.22;4975042;28;20045;-67
2022/07/25 06:35:44;;;;;;;8.18;6.40;;;;;;;19.86;63.82;100087.34;4978178;28;20073;-70
2022/07/25 06:38:48;;;;;;;9.40;5.90;;;;;;;19.97;65.08;100082.69;4970412;28;20076;-68
2022/07/25 06:41:52;;;;;;;6.80;5.63;;;;;;;20.07;63.78;100084.38;4969280;28;20078;-69
2022/07/25 06:44:55;;;;;;;7.90;5.68;;;;;;;20.19;63.12;100083.19;4969314;28;20078;-70
2022/07/25 06:47:58;;;;;;;9.55;5.78;;;;;;;20.34;62.46;100073.69;4980326;28;20049;-70
2022/07/25 06:51:02;;;;;;;7.45;6.00;;;;;;;20.53;61.49;100066.56;4988995;28;20049;-70
2022/07/25 06:54:06;;;;;;;10.05;5.85;;;;;;;20.60;61.09;100071.06;4989766;28;20079;-69
2022/07/25 06:57:09;;;;;;;8.23;5.65;;;;;;;20.74;60.64;100063.50;4988860;28;20838;-69
2022/07/25 07:00:13;;;;;;;10.50;5.25;;;;;;;20.88;59.91;100065.59;4989258;28;20153;-69
2022/07/25 07:03:16;;;;;;;6.28;5.35;;;;;;;20.96;59.74;100060.31;4989211;28;20056;-70
2022/07/25 07:06:20;;;;;;;8.25;6.13;;;;;;;21.11;59.54;100068.53;4989250;28;20036;-70
2022/07/25 07:09:23;;;;;;;8.27;5.30;;;;;;;21.23;59.13;100061.13;4989500;28;20124;-69
2022/07/25 07:12:27;;;;;;;10.18;6.15;;;;;;;21.32;58.59;100054.84;4990023;28;20100;-77
2022/07/25 07:15:30;;;;;;;9.57;6.18;;;;;;;21.45;59.11;100059.72;4989932;28;20890;-70
2022/07/25 07:18:34;;;;;;;8.10;4.88;;;;;;;21.58;58.72;100052.13;4989399;28;20054;-71
2022/07/25 07:21:38;;;;;;;9.98;5.78;;;;;;;21.65;57.70;100054.94;4989232;28;20052;-72
2022/07/25 07:24:41;;;;;;;10.38;6.20;;;;;;;21.79;57.17;100041.00;4989275;28;20063;-74
2022/07/25 07:27:44;;;;;;;6.40;5.75;;;;;;;21.90;57.41;100042.53;4977013;28;20131;-69
2022/07/25 07:30:52;;;;;;;11.90;5.47;;;;;;;22.01;57.10;100034.19;4987936;28;20420;-69
2022/07/25 07:33:57;;;;;;;10.13;5.07;;;;;;;22.12;57.01;100036.53;4988165;28;20076;-70
2022/07/25 07:37:02;;;;;;;6.50;5.32;;;;;;;22.33;56.71;100027.22;4988429;28;20073;-70
2022/07/25 07:40:08;;;;;;;6.93;5.00;;;;;;;22.43;56.00;100020.72;4988516;28;20096;-71
2022/07/25 07:43:12;;;;;;;8.55;5.63;;;;;;;22.67;56.09;100005.69;4988194;28;20511;-71
2022/07/25 07:46:15;;;;;;;7.88;5.38;;;;;;;22.79;55.88;100009.66;4968721;28;20899;-70
2022/07/25 07:49:18;;;;;;;6.28;5.50;;;;;;;22.81;55.21;100009.44;4968702;28;20081;-71
2022/07/25 07:52:22;;;;;;;8.38;5.28;;;;;;;22.90;55.23;100008.44;4968753;28;20045;-69
2022/07/25 07:55:44;;;;;;;8.13;5.70;;;;;;;23.03;55.14;99999.91;4969294;28;20082;-70
2022/07/25 07:58:49;;;;;;;9.50;5.57;;;;;;;23.20;54.52;99988.16;4973682;28;20348;-70
2022/07/25 08:01:52;;;;;;;6.03;4.85;;;;;;;23.31;54.36;99990.44;4987997;28;20053;-68
2022/07/25 08:05:00;;;;;;;6.78;5.32;;;;;;;23.76;53.27;99994.16;4987800;28;20092;-68
2022/07/25 08:08:08;;;;;;;5.63;5.05;;;;;;;23.93;52.71;99986.00;4988344;28;20053;-72
2022/07/25 08:11:11;;;;;;;6.20;5.07;;;;;;;24.00;52.94;99977.13;4988367;28;20105;-72
2022/07/25 08:14:15;;;;;;;8.63;5.30;;;;;;;24.30;51.89;99974.50;4988350;28;20053;-74
2022/07/25 08:17:18;;;;;;;7.88;5.03;;;;;;;24.47;51.35;99964.47;4988465;28;20065;-72
2022/07/25 08:20:23;;;;;;;6.15;4.35;;;;;;;24.77;51.34;99954.63;4984458;28;20502;-76
2022/07/25 08:23:37;;;;;;;9.18;5.28;;;;;;;24.88;51.12;99958.66;4987827;28;20049;-74
2022/07/25 08:26:41;;;;;;;12.20;5.30;;;;;;;25.11;50.65;99948.66;4986666;28;20089;-73
2022/07/25 08:29:44;;;;;;;5.75;4.53;;;;;;;25.55;49.68;99942.31;4986859;28;20230;-74
2022/07/25 08:32:53;;;;;;;8.52;5.22;;;;;;;25.61;48.85;99946.91;4986673;28;20076;-72
2022/07/25 08:35:57;;;;;;;9.20;5.60;;;;;;;25.72;48.67;99934.88;4985715;28;20058;-72
2022/07/25 08:39:00;;;;;;;6.75;5.13;;;;;;;25.83;47.86;99922.84;4986741;28;20105;-76
2022/07/25 08:42:04;;;;;;;6.80;5.32;;;;;;;26.15;44.81;99916.06;4986712;28;20046;-73
2022/07/25 08:45:12;;;;;;;5.47;4.65;;;;;;;26.66;45.24;99916.56;4985205;28;20403;-74
2022/07/25 08:48:25;;;;;;;5.45;4.30;;;;;;;26.62;43.45;99912.63;4987343;28;20045;-73
2022/07/25 08:51:31;;;;;;;5.10;4.60;;;;;;;26.89;41.17;99907.34;4990678;28;20046;-72
2022/07/25 08:54:34;;;;;;;6.55;4.07;;;;;;;27.27;39.81;99914.91;4990398;28;20160;-73
2022/07/25 08:57:40;;;;;;;6.93;5.22;;;;;;;27.52;39.18;99902.56;4990335;28;20057;-73
2022/07/25 09:00:44;;;;;;;6.45;4.90;;;;;;;27.22;39.77;99901.28;4990719;28;20124;-72
2022/07/25 09:03:47;;;;;;;5.03;4.32;;;;;;;27.48;39.49;99895.97;4990079;28;20049;-72
2022/07/25 09:06:52;;;;;;;7.95;4.63;;;;;;;27.65;39.51;99892.84;4984382;28;20145;-69
2022/07/25 09:09:55;;;;;;;6.03;4.55;;;;;;;27.56;39.28;99885.00;4981185;28;20057;-70
2022/07/25 09:13:03;;;;;;;7.13;5.00;;;;;;;27.56;39.08;99882.31;4988158;28;20093;-70
2022/07/25 09:16:07;;;;;;;5.15;4.32;;;;;;;27.55;39.48;99886.03;4972939;28;20042;-70
2022/07/25 09:19:19;;;;;;;7.03;5.00;;;;;;;27.85;37.84;99885.63;4988920;28;20041;-70
2022/07/25 09:22:23;;;;;;;7.47;4.93;;;;;;;27.95;37.55;99891.44;4988443;28;20498;-70
2022/07/25 09:25:30;;;;;;;6.93;4.72;;;;;;;28.38;36.34;99890.91;4986992;28;20112;-69
2022/07/25 09:28:41;;;;;;;5.97;4.45;;;;;;;28.43;36.17;99890.28;4988140;28;20262;-69
2022/07/25 09:31:45;;;;;;;6.07;4.63;;;;;;;28.72;36.18;99899.72;4986298;28;20154;-70
2022/07/25 09:34:49;;;;;;;5.10;4.60;;;;;;;28.73;35.47;99887.91;4988031;28;20040;-70
2022/07/25 09:37:53;;;;;;;6.18;5.30;;;;;;;28.82;35.78;99881.25;4987357;28;20121;-69
2022/07/25 09:41:00;;;;;;;7.63;5.20;;;;;;;28.90;35.70;99870.19;4987233;28;20120;-76
2022/07/25 09:44:29;;;;;;;7.07;4.97;;;;;;;28.97;35.30;99872.84;4987345;28;20061;-77
2022/07/25 09:47:35;;;;;;;10.90;4.80;;;;;;;29.42;34.24;99883.59;4974931;28;20182;-75
2022/07/25 09:50:38;;;;;;;6.72;4.50;;;;;;;29.60;33.58;99866.63;4984790;28;20688;-74
2022/07/25 09:53:42;;;;;;;5.15;4.65;;;;;;;29.80;32.97;99859.25;4984914;28;20592;-75
2022/07/25 09:56:46;;;;;;;6.78;4.50;;;;;;;30.00;33.04;99869.00;4968123;28;20049;-76
2022/07/25 09:59:50;;;;;;;5.35;4.40;;;;;;;30.31;32.48;99852.72;4968144;28;20056;-75
2022/07/25 10:02:54;;;;;;;6.70;4.25;;;;;;;30.18;32.42;99852.81;4968517;28;20506;-75
2022/07/25 10:06:19;;;;;;;6.65;4.60;;;;;;;30.27;32.72;99838.00;4968744;28;20105;-74
2022/07/25 10:09:24;;;;;;;6.63;4.85;;;;;;;29.83;33.47;99839.91;4987887;28;20068;-76
2022/07/25 10:12:30;;;;;;;7.75;4.82;;;;;;;30.26;32.94;99835.56;4987984;28;20747;-76
2022/07/25 10:15:49;;;;;;;7.28;4.50;;;;;;;30.18;33.04;99831.22;4987797;28;20081;-74
2022/07/25 10:18:57;;;;;;;6.15;4.30;;;;;;;30.35;32.53;99837.72;4987420;28;20077;-76
2022/07/25 10:22:01;;;;;;;9.45;5.43;;;;;;;30.19;33.48;99838.31;4986794;28;20671;-76
2022/07/25 10:25:14;;;;;;;6.45;5.10;;;;;;;30.64;33.03;99840.66;4986032;28;20269;-75
2022/07/25 10:28:19;;;;;;;5.35;4.82;;;;;;;30.71;32.75;99854.88;4986034;28;20475;-75
2022/07/25 10:31:34;;;;;;;5.80;4.55;;;;;;;30.57;33.07;99850.72;4986993;28;20053;-75
2022/07/25 10:34:39;;;;;;;6.97;4.50;;;;;;;30.61;32.11;99857.31;4987425;28;20057;-76
2022/07/25 10:37:44;;;;;;;5.28;4.07;;;;;;;30.51;32.46;99867.81;4986233;28;20177;-75
2022/07/25 10:40:48;;;;;;;4.85;4.35;;;;;;;30.43;32.47;99877.03;4987212;28;20060;-76
2022/07/25 10:44:01;;;;;;;6.47;3.53;;;;;;;30.36;32.26;99873.59;4987125;28;20053;-76
2022/07/25 10:47:06;;;;;;;7.47;3.78;;;;;;;30.19;31.99;99864.44;4972598;28;20053;-75
2022/07/25 10:50:10;;;;;;;8.43;3.58;;;;;;;30.18;32.09;99874.38;4986335;28;20408;-74
2022/07/25 10:53:25;;;;;;;5.32;3.70;;;;;;;30.32;32.09;99869.72;4986811;28;20049;-75
2022/07/25 10:56:29;;;;;;;4.03;2.97;;;;;;;30.46;31.73;99879.28;4987306;28;20333;-75
2022/07/25 10:59:32;;;;;;;5.43;3.80;;;;;;;30.37;32.27;99882.50;4986780;28;20089;-75
2022/07/25 11:02:36;;;;;;;5.25;3.20;;;;;;;30.40;32.46;99882.06;4987068;28;20092;-75
2022/07/25 11:05:44;;;;;;;6.47;3.60;;;;;;;30.44;32.44;99877.84;4968116;28;20144;-75
2022/07/25 11:08:49;;;;;;;7.78;3.72;;;;;;;30.52;32.46;99893.75;4986124;28;20128;-76
2022/07/25 11:11:56;;;;;;;6.85;3.38;;;;;;;30.66;32.68;99879.00;4987365;28;20105;-75
2022/07/25 11:15:06;;;;;;;4.15;3.58;;;;;;;30.84;32.08;99880.09;4987327;28;20124;-75
2022/07/25 11:18:11;;;;;;;6.53;3.70;;;;;;;30.88;31.93;99897.47;4971470;28;20140;-76
2022/07/25 11:21:17;;;;;;;9.55;3.60;;;;;;;30.72;32.33;99878.09;4986987;28;20096;-75
2022/07/25 11:24:40;;;;;;;5.60;4.07;;;;;;;30.70;32.22;99866.75;4987003;28;20065;-75
2022/07/25 11:27:44;;;;;;;4.85;3.63;;;;;;;30.46;32.65;99878.47;4988165;28;20081;-77
2022/07/25 11:30:47;;;;;;;5.40;3.80;;;;;;;30.43;32.73;99878.91;4968542;28;20081;-75
2022/07/25 11:33:56;;;;;;;7.03;3.70;;;;;;;30.26;33.38;99876.81;4977470;28;20129;-74
2022/07/25 11:37:02;;;;;;;6.40;4.25;;;;;;;30.01;33.53;99884.13;4974719;28;20511;-75
2022/07/25 11:40:07;;;;;;;4.50;3.58;;;;;;;29.85;34.11;99861.25;4986590;28;20049;-77
2022/07/25 11:43:19;;;;;;;6.07;3.90;;;;;;;29.85;34.28;99872.03;4986347;28;20053;-76
2022/07/25 11:46:23;;;;;;;;;;;;;;;29.84;34.19;99878.47;4986916;28;20116;-77
2022/07/25 11:49:29;;;;;;;5.35;4.10;;;;;;;29.76;33.97;99881.44;4974730;28;20489;-77
2022/07/25 11:52:37;;;;;;;7.22;4.03;;;;;;;29.76;34.31;99898.44;4986644;28;20741;-76
2022/07/25 11:55:42;;;;;;;4.78;3.63;;;;;;;29.77;34.37;99921.66;4975084;28;20111;-76
2022/07/25 11:58:58;;;;;;;21.42;5.30;;;;;;;28.96;44.05;99944.69;4975710;28;20089;-75
2022/07/25 12:02:01;;;;;;;14.25;4.47;;;;;;;28.04;45.90;99935.00;4974441;28;20046;-76
2022/07/25 12:05:09;;;;;;;8.63;4.32;;;;;;;27.49;55.27;99953.97;4987731;28;20049;-75
2022/07/25 12:08:16;;;;;;;8.57;4.47;;;;;;;26.99;60.13;99972.19;4986779;28;20049;-76
2022/07/25 12:11:24;;;;;;;10.23;5.82;;;;;;;26.73;63.82;99967.53;4986354;28;20065;-76
2022/07/25 12:14:28;;;;;;;8.85;5.50;;;;;;;25.81;67.59;99978.41;4974799;28;20053;-76
2022/07/25 12:17:32;;;;;;;11.18;5.28;;;;;;;25.54;69.36;99975.47;4986374;28;20045;-76
2022/07/25 12:20:43;;;;;;;9.15;4.90;;;;;;;25.15;73.15;99974.03;4986838;28;20539;-76
2022/07/25 12:23:46;;;;;;;7.22;5.00;;;;;;;24.98;72.53;99967.19;4977850;28;20049;-76
2022/07/25 12:26:49;;;;;;;6.85;5.30;;;;;;;24.99;75.20;99959.00;4990068;28;20112;-75
2022/07/25 12:29:53;;;;;;;8.50;5.32;;;;;;;24.94;74.83;99960.56;4989684;28;20116;-75
2022/07/25 12:32:57;;;;;;;10.30;5.65;;;;;;;24.94;75.44;99955.22;4989369;28;20053;-76
2022/07/25 12:36:02;;;;;;;10.23;5.97;;;;;;;24.85;76.51;99945.66;4990104;28;20104;-76
2022/07/25 12:39:09;;;;;;;11.90;6.32;;;;;;;24.86;75.75;99942.81;4978066;28;20050;-75
2022/07/25 12:42:15;;;;;;;16.88;6.60;;;;;;;25.22;74.76;99950.84;4990116;28;20041;-76
2022/07/25 12:45:22;;;;;;;7.75;5.75;;;;;;;25.70;70.83;99940.41;4989966;28;20048;-76
2022/07/25 12:48:26;;;;;;;9.60;5.53;;;;;;;26.11;71.05;99937.06;4990461;28;20105;-75
2022/07/25 12:51:29;;;;;;;7.97;5.63;;;;;;;26.51;68.50;99926.59;4990238;28;20109;-76
2022/07/25 12:54:34;;;;;;;7.63;5.38;;;;;;;27.16;66.29;99920.91;4989822;28;20049;-76
2022/07/25 12:57:38;;;;;;;10.90;6.07;;;;;;;27.50;64.72;99915.34;4989314;28;20073;-76
2022/07/25 13:00:46;;;;;;;10.93;5.43;;;;;;;27.43;62.80;99898.41;4989290;28;20137;-76
2022/07/25 13:03:51;;;;;;;8.50;5.03;;;;;;;27.53;62.60;99896.16;4989801;28;20057;-76
2022/07/25 13:06:58;;;;;;;7.70;5.13;;;;;;;27.71;61.99;99897.41;4969569;28;20130;-76
2022/07/25 13:10:02;;;;;;;7.78;5.32;;;;;;;27.50;64.93;99899.25;4958276;28;20193;-77
2022/07/25 13:13:07;;;;;;;5.85;5.10;;;;;;;27.40;65.23;99892.63;4974176;28;20100;-77
2022/07/25 13:16:11;;;;;;;12.95;5.47;;;;;;;27.57;63.17;99891.22;4989883;28;20185;-75
2022/07/25 13:19:20;;;;;;;8.65;5.00;;;;;;;27.53;63.63;99890.78;4989562;28;20056;-76
2022/07/25 13:22:24;;;;;;;11.32;5.38;;;;;;;27.46;67.31;99875.72;4989469;28;20327;-76
2022/07/25 13:25:28;;;;;;;9.15;5.75;;;;;;;27.68;64.90;99873.63;4988799;28;20671;-76
2022/07/25 13:28:31;;;;;;;10.38;5.20;;;;;;;27.84;65.24;99875.09;4985448;28;20080;-74
2022/07/25 13:31:34;;;;;;;9.52;4.72;;;;;;;27.84;61.36;99875.94;4989949;28;20085;-74
2022/07/25 13:34:38;;;;;;;7.78;5.20;;;;;;;28.02;64.13;99864.53;4988122;28;20515;-76
2022/07/25 13:37:42;;;;;;;6.45;5.22;;;;;;;28.45;65.97;99862.16;4979476;28;20531;-75
2022/07/25 13:40:46;;;;;;;7.63;5.20;;;;;;;27.95;67.75;99866.41;4969631;28;20570;-75
2022/07/25 13:43:50;;;;;;;6.97;5.20;;;;;;;28.21;63.85;99854.78;4967092;28;20128;-74
2022/07/25 13:46:54;;;;;;;7.68;4.57;;;;;;;29.03;65.02;99850.50;4970021;28;20067;-74
2022/07/25 13:49:58;;;;;;;7.65;4.88;;;;;;;29.37;63.26;99851.91;4969555;28;20054;-75
2022/07/25 13:53:04;;;;;;;8.65;5.13;;;;;;;29.30;65.85;99843.06;4970598;28;20048;-75
2022/07/25 13:56:07;;;;;;;5.18;4.68;;;;;;;29.87;62.05;99833.03;4974909;28;20061;-75
2022/07/25 13:59:10;;;;;;;7.25;4.30;;;;;;;29.36;60.79;99841.38;4989907;28;20478;-75
2022/07/25 14:02:14;;;;;;;6.65;4.30;;;;;;;29.89;57.08;99825.53;4989868;28;20631;-76
2022/07/25 14:06:09;;;;;;;7.50;4.38;;;;;;;30.33;51.28;99828.19;4988488;28;20750;-77
2022/07/25 14:09:19;;;;;;;5.15;3.88;;;;;;;30.96;38.21;99813.47;4990213;28;20057;-75
2022/07/25 14:12:23;;;;;;;4.85;3.85;;;;;;;31.20;36.36;99801.63;4969355;28;20511;-75
2022/07/25 14:15:27;;;;;;;5.35;4.07;;;;;;;31.09;35.60;99813.25;4971167;28;20511;-74
2022/07/25 14:18:30;;;;;;;6.35;3.78;;;;;;;31.27;35.00;99809.63;4957696;28;20611;-74
2022/07/25 14:21:34;;;;;;;6.28;4.03;;;;;;;33.10;31.80;99796.41;4969909;28;20045;-77
2022/07/25 14:24:37;;;;;;;6.57;4.75;;;;;;;33.73;30.72;99786.28;4973820;28;20524;-76
2022/07/25 14:27:41;;;;;;;5.75;3.92;;;;;;;31.96;32.98;99793.69;4989241;28;20044;-77
2022/07/25 14:30:45;;;;;;;7.80;3.85;;;;;;;31.56;33.33;99793.56;4986252;28;20173;-75